Time;durP1;ratioP1;P1;durP2;ratioP2;P2;SDS_P1;SDS_P2;PMS_P1;PMS_P2;Temp;Humidity;BMP_temperature;BMP_pressure;BME280_temperature;BME280_humidity;BME280_pressure;Samples;Min_cycle;Max_cycle;Signal;HPM_P1;HPM_P2
2023/05/16 00:00:34;;;;;;;31.15;18.63;;;;;;;;;;7372335;19;20007;-75
2023/05/16 00:03:00;;;;;;;32.25;19.08;;;;;;;;;;7373261;19;20025;-75
2023/05/16 00:05:26;;;;;;;31.02;18.75;;;;;;;;;;7393032;19;20007;-74
2023/05/16 00:07:51;;;;;;;30.95;18.05;;;;;;;;;;7368526;19;20488;-74
2023/05/16 00:10:17;;;;;;;31.23;16.98;;;;;;;;;;7371350;19;20028;-74
2023/05/16 00:12:43;;;;;;;29.40;18.63;;;;;;;;;;7370653;19;20014;-75
2023/05/16 00:15:11;;;;;;;34.15;18.33;;;;;;;;;;7371827;19;20609;-75
2023/05/16 00:17:37;;;;;;;29.75;18.45;;;;;;;;;;7369641;19;20014;-74
2023/05/16 00:20:08;;;;;;;31.70;18.52;;;;;;;;;;7393198;19;19999;-75
2023/05/16 00:22:33;;;;;;;29.88;17.55;;;;;;;;;;7371890;19;20242;-75
2023/05/16 00:24:58;;;;;;;29.02;18.02;;;;;;;;;;7372157;19;20019;-74
2023/05/16 00:27:24;;;;;;;29.52;17.77;;;;;;;;;;7368887;19;20456;-74
2023/05/16 00:29:49;;;;;;;36.78;19.10;;;;;;;;;;7370668;19;20007;-75
2023/05/16 00:32:14;;;;;;;27.00;17.33;;;;;;;;;;7392322;19;20009;-74
2023/05/16 00:34:40;;;;;;;28.40;16.95;;;;;;;;;;7370604;19;20020;-74
2023/05/16 00:37:05;;;;;;;29.45;17.30;;;;;;;;;;7368567;19;20036;-74
2023/05/16 00:39:31;;;;;;;29.23;18.38;;;;;;;;;;7371199;19;20006;-74
2023/05/16 00:41:56;;;;;;;29.77;17.65;;;;;;;;;;7369773;19;20014;-74
2023/05/16 00:44:21;;;;;;;26.48;16.35;;;;;;;;;;7391897;19;20010;-74
2023/05/16 00:46:47;;;;;;;31.33;17.27;;;;;;;;;;7364336;19;20049;-74
2023/05/16 00:49:12;;;;;;;28.70;16.00;;;;;;;;;;7367567;19;20006;-74
2023/05/16 00:51:38;;;;;;;24.60;16.17;;;;;;;;;;7370995;19;20021;-75
2023/05/16 00:54:04;;;;;;;26.58;16.08;;;;;;;;;;7371298;19;20021;-74
2023/05/16 00:56:30;;;;;;;22.73;15.25;;;;;;;;;;7393065;19;20010;-74
2023/05/16 00:58:56;;;;;;;26.95;15.48;;;;;;;;;;7369659;19;20014;-74
2023/05/16 01:01:23;;;;;;;26.42;16.35;;;;;;;;;;7370137;19;20031;-76
2023/05/16 01:03:49;;;;;;;24.73;15.48;;;;;;;;;;7369189;19;20093;-76
2023/05/16 01:06:15;;;;;;;25.27;15.57;;;;;;;;;;7368852;19;20780;-75
2023/05/16 01:08:40;;;;;;;26.20;16.65;;;;;;;;;;7367312;19;20023;-75
2023/05/16 01:11:23;;;;;;;25.63;16.35;;;;;;;;;;7391152;19;20023;-75
2023/05/16 01:14:07;;;;;;;27.48;15.73;;;;;;;;;;7369161;19;20014;-75
2023/05/16 01:16:51;;;;;;;22.33;14.63;;;;;;;;;;7367642;19;20007;-75
2023/05/16 01:19:50;;;;;;;24.27;14.85;;;;;;;;;;7368513;19;20010;-75
2023/05/16 01:22:30;;;;;;;24.65;14.70;;;;;;;;;;7369269;19;20591;-75
2023/05/16 01:25:33;;;;;;;23.77;14.75;;;;;;;;;;7369430;19;20010;-75
2023/05/16 01:28:00;;;;;;;22.23;13.35;;;;;;;;;;7365874;19;20014;-75
2023/05/16 01:30:26;;;;;;;23.98;14.43;;;;;;;;;;7369378;19;20035;-75
2023/05/16 01:32:51;;;;;;;23.13;13.68;;;;;;;;;;7369362;19;20002;-75
2023/05/16 01:35:17;;;;;;;23.90;14.50;;;;;;;;;;7391691;19;20027;-75
2023/05/16 01:37:56;;;;;;;24.58;14.45;;;;;;;;;;7365980;19;20460;-76
2023/05/16 01:40:26;;;;;;;24.17;13.63;;;;;;;;;;7368769;19;20014;-74
2023/05/16 01:42:53;;;;;;;22.07;13.63;;;;;;;;;;7368366;19;20002;-75
2023/05/16 01:45:38;;;;;;;23.05;13.93;;;;;;;;;;7368849;19;20010;-73
2023/05/16 01:48:09;;;;;;;23.52;13.70;;;;;;;;;;7367270;19;20017;-74
2023/05/16 01:50:52;;;;;;;24.05;13.38;;;;;;;;;;7387305;19;20003;-77
2023/05/16 01:53:32;;;;;;;22.67;13.00;;;;;;;;;;7390880;19;20006;-76
2023/05/16 01:56:00;;;;;;;22.90;13.52;;;;;;;;;;7368390;19;20081;-74
2023/05/16 01:58:29;;;;;;;20.98;13.05;;;;;;;;;;7366695;19;20012;-75
2023/05/16 02:01:02;;;;;;;22.55;12.50;;;;;;;;;;7372168;19;20006;-76
2023/05/16 02:03:27;;;;;;;24.10;13.57;;;;;;;;;;7377284;19;20040;-74
2023/05/16 02:05:52;;;;;;;25.23;14.48;;;;;;;;;;7377304;19;19998;-75
2023/05/16 02:08:18;;;;;;;23.50;13.05;;;;;;;;;;7394824;19;20016;-74
2023/05/16 02:10:43;;;;;;;26.83;13.65;;;;;;;;;;7375818;19;20094;-74
2023/05/16 02:13:08;;;;;;;25.83;13.85;;;;;;;;;;7376190;19;20006;-74
2023/05/16 02:15:34;;;;;;;29.80;14.45;;;;;;;;;;7372736;19;20077;-75
2023/05/16 02:17:59;;;;;;;20.58;13.48;;;;;;;;;;7372470;19;20531;-75
2023/05/16 02:20:24;;;;;;;25.27;14.88;;;;;;;;;;7397418;19;20046;-74
2023/05/16 02:22:50;;;;;;;31.58;15.23;;;;;;;;;;7374993;19;20666;-74
2023/05/16 02:25:15;;;;;;;26.73;15.52;;;;;;;;;;7373919;19;20014;-74
2023/05/16 02:27:42;;;;;;;28.05;14.52;;;;;;;;;;7372382;19;20006;-74
2023/05/16 02:30:09;;;;;;;30.33;14.75;;;;;;;;;;7374812;19;20014;-74
2023/05/16 02:32:35;;;;;;;29.17;14.35;;;;;;;;;;7395969;19;20033;-74
2023/05/16 02:35:00;;;;;;;23.42;13.18;;;;;;;;;;7372405;19;20395;-75
2023/05/16 02:37:25;;;;;;;21.65;11.05;;;;;;;;;;7371304;19;20006;-76
2023/05/16 02:39:51;;;;;;;24.35;13.40;;;;;;;;;;7375032;19;20010;-76
2023/05/16 02:42:16;;;;;;;25.20;13.45;;;;;;;;;;7374626;19;20006;-75
2023/05/16 02:44:41;;;;;;;23.05;13.55;;;;;;;;;;7374052;19;19994;-74
2023/05/16 02:47:07;;;;;;;23.88;14.13;;;;;;;;;;7393653;19;20070;-75
2023/05/16 02:49:32;;;;;;;21.75;12.63;;;;;;;;;;7372503;19;20030;-76
2023/05/16 02:51:57;;;;;;;27.55;14.23;;;;;;;;;;7373762;19;20002;-75
2023/05/16 02:54:23;;;;;;;26.98;13.20;;;;;;;;;;7374107;19;20002;-75
2023/05/16 02:56:48;;;;;;;27.30;13.57;;;;;;;;;;7373327;19;20013;-75
2023/05/16 02:59:14;;;;;;;24.92;13.27;;;;;;;;;;7394616;19;20011;-75
2023/05/16 03:01:39;;;;;;;22.42;12.05;;;;;;;;;;7372987;19;20014;-76
2023/05/16 03:04:04;;;;;;;21.50;12.77;;;;;;;;;;7375118;19;20072;-75
2023/05/16 03:06:30;;;;;;;25.67;13.43;;;;;;;;;;7376962;19;20016;-74
2023/05/16 03:08:55;;;;;;;25.77;13.82;;;;;;;;;;7370952;19;20006;-74
2023/05/16 03:11:24;;;;;;;21.80;12.57;;;;;;;;;;7395811;19;20010;-74
2023/05/16 03:13:50;;;;;;;26.00;13.52;;;;;;;;;;7372127;19;20071;-74
2023/05/16 03:16:15;;;;;;;22.80;12.65;;;;;;;;;;7372633;19;20024;-74
2023/05/16 03:18:41;;;;;;;26.30;13.95;;;;;;;;;;7371363;19;20598;-74
2023/05/16 03:21:06;;;;;;;24.67;11.77;;;;;;;;;;7373927;19;20010;-74
2023/05/16 03:23:32;;;;;;;23.25;12.85;;;;;;;;;;7395769;19;20006;-76
2023/05/16 03:25:58;;;;;;;26.70;12.85;;;;;;;;;;7374194;19;20018;-74
2023/05/16 03:28:23;;;;;;;22.85;12.38;;;;;;;;;;7371402;19;20002;-74
2023/05/16 03:30:48;;;;;;;20.98;12.55;;;;;;;;;;7375241;19;20053;-75
2023/05/16 03:33:14;;;;;;;23.48;12.77;;;;;;;;;;7374584;19;20003;-74
2023/05/16 03:35:39;;;;;;;24.65;12.18;;;;;;;;;;7374876;19;20078;-75
2023/05/16 03:38:05;;;;;;;24.35;12.00;;;;;;;;;;7394685;19;20092;-74
2023/05/16 03:40:30;;;;;;;22.52;12.25;;;;;;;;;;7374542;19;20118;-74
2023/05/16 03:42:56;;;;;;;19.73;11.98;;;;;;;;;;7372889;19;20002;-74
2023/05/16 03:45:21;;;;;;;22.58;11.40;;;;;;;;;;7374068;19;20104;-74
2023/05/16 03:47:48;;;;;;;20.50;11.32;;;;;;;;;;7370203;19;20031;-74
2023/05/16 03:50:13;;;;;;;23.65;10.90;;;;;;;;;;7396925;19;20472;-74
2023/05/16 03:52:38;;;;;;;18.15;10.65;;;;;;;;;;7373713;19;20028;-74
2023/05/16 03:55:04;;;;;;;14.68;9.30;;;;;;;;;;7372692;19;20010;-75
2023/05/16 03:57:31;;;;;;;16.50;9.35;;;;;;;;;;7369402;19;20074;-74
2023/05/16 03:59:56;;;;;;;14.77;8.88;;;;;;;;;;7371538;19;20112;-74
2023/05/16 04:02:21;;;;;;;19.15;8.30;;;;;;;;;;7394607;19;20006;-74
2023/05/16 04:04:47;;;;;;;16.10;8.07;;;;;;;;;;7372835;19;20009;-74
2023/05/16 04:07:12;;;;;;;12.60;6.90;;;;;;;;;;7370764;19;20006;-74
2023/05/16 04:09:38;;;;;;;12.35;6.60;;;;;;;;;;7373446;19;20722;-74
2023/05/16 04:12:03;;;;;;;11.75;6.00;;;;;;;;;;7368003;19;20014;-74
2023/05/16 04:14:28;;;;;;;11.40;6.18;;;;;;;;;;7398298;19;19995;-74
2023/05/16 04:16:54;;;;;;;11.52;6.07;;;;;;;;;;7397420;19;20006;-74
2023/05/16 04:19:19;;;;;;;13.43;5.15;;;;;;;;;;7374753;19;20006;-74
2023/05/16 04:21:44;;;;;;;9.05;4.65;;;;;;;;;;7376419;19;20007;-74
2023/05/16 04:24:10;;;;;;;8.70;4.80;;;;;;;;;;7388773;19;20013;-76
2023/05/16 04:26:36;;;;;;;10.50;5.13;;;;;;;;;;7401461;19;20003;-74
2023/05/16 04:29:01;;;;;;;8.75;4.28;;;;;;;;;;7404726;19;19998;-75
2023/05/16 04:31:27;;;;;;;7.05;3.90;;;;;;;;;;7382590;19;20018;-76
2023/05/16 04:33:53;;;;;;;9.35;3.78;;;;;;;;;;7372504;19;20015;-75
2023/05/16 04:36:18;;;;;;;8.00;3.58;;;;;;;;;;7371798;19;20018;-74
2023/05/16 04:38:46;;;;;;;6.30;2.83;;;;;;;;;;7371085;19;20469;-75
2023/05/16 04:41:12;;;;;;;5.25;2.67;;;;;;;;;;7391632;19;20014;-74
2023/05/16 04:43:37;;;;;;;5.55;2.42;;;;;;;;;;7367632;19;20028;-68
2023/05/16 04:46:02;;;;;;;5.20;2.58;;;;;;;;;;7366929;19;20508;-65
2023/05/16 04:48:28;;;;;;;5.53;2.45;;;;;;;;;;7366134;19;20018;-65
2023/05/16 04:50:54;;;;;;;4.03;2.10;;;;;;;;;;7367849;19;20021;-65
2023/05/16 04:53:19;;;;;;;4.65;2.20;;;;;;;;;;7391299;19;20006;-66
2023/05/16 04:55:45;;;;;;;3.70;2.00;;;;;;;;;;7370878;19;20011;-66
2023/05/16 04:58:10;;;;;;;2.83;1.63;;;;;;;;;;7372268;19;20014;-65
2023/05/16 05:00:36;;;;;;;2.83;1.50;;;;;;;;;;7374340;19;20018;-70
2023/05/16 05:03:02;;;;;;;2.03;1.40;;;;;;;;;;7371144;19;20476;-74
2023/05/16 05:05:27;;;;;;;3.17;1.73;;;;;;;;;;7390768;19;20006;-74
2023/05/16 05:07:56;;;;;;;4.60;1.60;;;;;;;;;;7361286;19;20006;-74
2023/05/16 05:10:21;;;;;;;5.40;2.63;;;;;;;;;;7362991;19;20010;-74
2023/05/16 05:12:47;;;;;;;5.47;1.80;;;;;;;;;;7366983;19;20072;-74
2023/05/16 05:15:12;;;;;;;2.78;1.60;;;;;;;;;;7370510;19;20014;-74
2023/05/16 05:17:37;;;;;;;4.95;1.55;;;;;;;;;;7366653;19;20475;-74
2023/05/16 05:20:07;;;;;;;3.40;1.65;;;;;;;;;;7391158;19;20002;-74
2023/05/16 05:22:32;;;;;;;2.83;1.58;;;;;;;;;;7369105;19;20013;-74
2023/05/16 05:24:58;;;;;;;3.22;1.73;;;;;;;;;;7370632;19;20006;-74
2023/05/16 05:27:24;;;;;;;9.30;1.70;;;;;;;;;;7367370;19;20011;-74
2023/05/16 05:29:49;;;;;;;5.43;1.60;;;;;;;;;;7369350;19;20019;-74
2023/05/16 05:32:14;;;;;;;2.60;1.38;;;;;;;;;;7391726;19;19994;-74
2023/05/16 05:34:40;;;;;;;2.13;1.38;;;;;;;;;;7369988;19;20013;-75
2023/05/16 05:37:05;;;;;;;3.25;1.70;;;;;;;;;;7367748;19;20006;-75
2023/05/16 05:39:30;;;;;;;5.10;1.60;;;;;;;;;;7369473;19;20044;-74
2023/05/16 05:41:56;;;;;;;4.15;1.45;;;;;;;;;;7370616;19;20059;-74
2023/05/16 05:44:21;;;;;;;3.30;1.33;;;;;;;;;;7391507;19;19999;-75
2023/05/16 05:46:47;;;;;;;1.80;1.13;;;;;;;;;;7372276;19;20085;-75
2023/05/16 05:49:12;;;;;;;2.08;1.10;;;;;;;;;;7383064;19;20013;-74
2023/05/16 05:51:37;;;;;;;1.95;1.20;;;;;;;;;;7373073;19;20008;-75
2023/05/16 05:54:03;;;;;;;2.95;1.50;;;;;;;;;;7372678;19;20110;-73
2023/05/16 05:56:28;;;;;;;1.27;1.00;;;;;;;;;;7398334;19;20011;-75
2023/05/16 05:58:53;;;;;;;1.90;1.02;;;;;;;;;;7368028;19;20480;-75
2023/05/16 06:01:22;;;;;;;0.90;0.90;;;;;;;;;;7369750;19;20002;-74
2023/05/16 06:03:47;;;;;;;1.20;1.10;;;;;;;;;;7367919;19;20006;-75
2023/05/16 06:06:13;;;;;;;1.92;1.30;;;;;;;;;;7368472;19;20009;-74
2023/05/16 06:08:39;;;;;;;1.80;1.15;;;;;;;;;;7366729;19;20006;-75
2023/05/16 06:11:05;;;;;;;3.33;1.60;;;;;;;;;;7389847;19;20040;-74
2023/05/16 06:13:30;;;;;;;3.25;1.38;;;;;;;;;;7369245;19;20006;-74
2023/05/16 06:15:56;;;;;;;2.50;1.45;;;;;;;;;;7368226;19;20496;-75
2023/05/16 06:18:21;;;;;;;3.22;1.30;;;;;;;;;;7366727;19;20009;-74
2023/05/16 06:20:47;;;;;;;5.30;1.58;;;;;;;;;;7368451;19;20033;-74
2023/05/16 06:23:12;;;;;;;4.07;1.30;;;;;;;;;;7391582;19;20394;-74
2023/05/16 06:25:37;;;;;;;3.13;1.30;;;;;;;;;;7368423;19;20045;-74
2023/05/16 06:28:03;;;;;;;3.42;1.35;;;;;;;;;;7365601;19;20014;-74
2023/05/16 06:30:28;;;;;;;1.83;1.30;;;;;;;;;;7366756;19;20036;-75
2023/05/16 06:32:53;;;;;;;1.95;1.20;;;;;;;;;;7367302;19;20008;-74
2023/05/16 06:35:19;;;;;;;3.20;1.30;;;;;;;;;;7388526;19;20007;-74
2023/05/16 06:37:44;;;;;;;2.95;1.42;;;;;;;;;;7364911;19;20003;-74
2023/05/16 06:40:10;;;;;;;8.50;1.50;;;;;;;;;;7368705;19;20002;-74
2023/05/16 06:42:36;;;;;;;1.55;1.30;;;;;;;;;;7367177;19;20023;-75
2023/05/16 06:45:01;;;;;;;1.88;1.25;;;;;;;;;;7367414;19;20031;-74
2023/05/16 06:47:26;;;;;;;2.72;1.40;;;;;;;;;;7383187;19;20008;-74
2023/05/16 06:49:51;;;;;;;1.52;1.30;;;;;;;;;;7373492;19;19998;-75
2023/05/16 06:52:17;;;;;;;4.85;1.20;;;;;;;;;;7373803;19;20374;-75
2023/05/16 06:54:42;;;;;;;4.10;1.48;;;;;;;;;;7374781;19;20031;-75
2023/05/16 06:57:08;;;;;;;2.67;1.27;;;;;;;;;;7371175;19;20591;-75
2023/05/16 06:59:34;;;;;;;3.28;1.30;;;;;;;;;;7397917;19;20010;-74
2023/05/16 07:02:00;;;;;;;4.60;1.40;;;;;;;;;;7376175;19;20002;-75
2023/05/16 07:04:25;;;;;;;5.65;1.40;;;;;;;;;;7378811;19;20010;-75
2023/05/16 07:06:51;;;;;;;3.42;1.15;;;;;;;;;;7374575;19;20521;-75
2023/05/16 07:09:17;;;;;;;10.05;1.35;;;;;;;;;;7372160;19;20013;-75
2023/05/16 07:11:42;;;;;;;3.40;1.05;;;;;;;;;;7374187;19;20010;-74
2023/05/16 07:14:08;;;;;;;3.60;1.30;;;;;;;;;;7397263;19;20047;-73
2023/05/16 07:16:34;;;;;;;2.90;1.00;;;;;;;;;;7372736;19;20006;-74
2023/05/16 07:18:59;;;;;;;1.70;0.95;;;;;;;;;;7373552;19;20006;-74
2023/05/16 07:21:25;;;;;;;4.30;1.05;;;;;;;;;;7393481;19;20009;-74
2023/05/16 07:23:50;;;;;;;1.13;0.90;;;;;;;;;;7390107;19;19991;-75
2023/05/16 07:26:16;;;;;;;3.03;1.00;;;;;;;;;;7398167;19;19995;-74
2023/05/16 07:28:41;;;;;;;1.35;1.00;;;;;;;;;;7371382;19;20869;-74
2023/05/16 07:31:07;;;;;;;2.85;0.85;;;;;;;;;;7373581;19;20010;-74
2023/05/16 07:33:32;;;;;;;1.17;0.82;;;;;;;;;;7371922;19;20406;-75
2023/05/16 07:35:58;;;;;;;2.92;0.80;;;;;;;;;;7373778;19;20010;-75
2023/05/16 07:38:23;;;;;;;1.88;0.80;;;;;;;;;;7391465;19;20013;-74
2023/05/16 07:40:48;;;;;;;2.00;0.75;;;;;;;;;;7372626;19;20013;-73
2023/05/16 07:43:13;;;;;;;2.50;1.35;;;;;;;;;;7371693;19;20003;-74
2023/05/16 07:45:39;;;;;;;2.53;0.98;;;;;;;;;;7372744;19;20078;-73
2023/05/16 07:48:04;;;;;;;1.02;0.95;;;;;;;;;;7369963;19;20323;-74
2023/05/16 07:50:29;;;;;;;1.35;0.70;;;;;;;;;;7394833;19;20041;-74
2023/05/16 07:52:55;;;;;;;2.38;1.00;;;;;;;;;;7372161;19;20014;-74
2023/05/16 07:55:21;;;;;;;3.45;0.88;;;;;;;;;;7372543;19;20246;-74
2023/05/16 07:57:47;;;;;;;2.42;0.68;;;;;;;;;;7371085;19;20048;-74
2023/05/16 08:00:13;;;;;;;2.80;0.77;;;;;;;;;;7372835;19;20006;-74
2023/05/16 08:02:39;;;;;;;1.05;1.00;;;;;;;;;;7371591;19;20480;-73
2023/05/16 08:05:04;;;;;;;2.83;0.77;;;;;;;;;;7394043;19;20033;-74
2023/05/16 08:07:30;;;;;;;1.10;1.00;;;;;;;;;;7368756;19;20114;-72
2023/05/16 08:09:55;;;;;;;1.13;0.68;;;;;;;;;;7371621;19;20069;-75
2023/05/16 08:12:21;;;;;;;0.63;0.60;;;;;;;;;;7372036;19;20082;-73
2023/05/16 08:14:46;;;;;;;1.55;0.88;;;;;;;;;;7372183;19;20364;-73
2023/05/16 08:17:11;;;;;;;2.22;0.80;;;;;;;;;;7391925;19;20002;-73
2023/05/16 08:19:37;;;;;;;1.40;0.80;;;;;;;;;;7371955;19;20073;-73
2023/05/16 08:22:02;;;;;;;2.03;0.70;;;;;;;;;;7370843;19;20634;-73
2023/05/16 08:24:27;;;;;;;1.98;0.82;;;;;;;;;;7371825;19;20372;-73
2023/05/16 08:26:53;;;;;;;2.90;0.90;;;;;;;;;;7370740;19;19999;-73
2023/05/16 08:29:18;;;;;;;5.75;1.00;;;;;;;;;;7390218;19;20465;-73
2023/05/16 08:31:43;;;;;;;2.30;0.95;;;;;;;;;;7371066;19;20010;-74
2023/05/16 08:34:09;;;;;;;5.63;1.20;;;;;;;;;;7370909;19;20006;-74
2023/05/16 08:36:35;;;;;;;3.40;0.80;;;;;;;;;;7370731;19;20273;-74
2023/05/16 08:39:01;;;;;;;2.03;0.80;;;;;;;;;;7369795;19;20006;-74
2023/05/16 08:41:26;;;;;;;3.42;2.17;;;;;;;;;;7393076;19;19999;-74
2023/05/16 08:43:52;;;;;;;4.82;1.08;;;;;;;;;;7370397;19;20031;-74
2023/05/16 08:46:21;;;;;;;1.52;0.90;;;;;;;;;;7371042;19;20432;-74
2023/05/16 08:48:50;;;;;;;2.40;0.88;;;;;;;;;;7370137;19;20460;-73
2023/05/16 08:51:17;;;;;;;2.00;0.70;;;;;;;;;;7371026;19;20042;-74
2023/05/16 08:53:49;;;;;;;1.52;1.00;;;;;;;;;;7370315;19;20013;-74
2023/05/16 08:56:16;;;;;;;1.02;0.80;;;;;;;;;;7391605;19;19991;-74
2023/05/16 08:58:41;;;;;;;0.63;0.57;;;;;;;;;;7385430;19;20426;-74
2023/05/16 09:01:08;;;;;;;4.10;1.00;;;;;;;;;;7386038;19;20002;-74
2023/05/16 09:03:37;;;;;;;1.92;0.90;;;;;;;;;;7378255;19;20007;-74
2023/05/16 09:06:05;;;;;;;3.45;1.00;;;;;;;;;;7369787;19;20006;-73
2023/05/16 09:08:31;;;;;;;1.48;0.88;;;;;;;;;;7390138;19;20018;-74
2023/05/16 09:10:56;;;;;;;3.30;1.00;;;;;;;;;;7368426;19;20006;-74
2023/05/16 09:13:23;;;;;;;3.00;1.10;;;;;;;;;;7369193;19;20007;-74
2023/05/16 09:16:11;;;;;;;2.15;0.77;;;;;;;;;;7371001;19;20014;-74
2023/05/16 09:18:37;;;;;;;1.25;0.70;;;;;;;;;;7369874;19;20036;-74
2023/05/16 09:21:04;;;;;;;1.02;0.90;;;;;;;;;;7371507;19;20106;-75
2023/05/16 09:23:30;;;;;;;4.03;1.20;;;;;;;;;;7391942;19;20006;-75
2023/05/16 09:25:57;;;;;;;3.35;1.60;;;;;;;;;;7371858;19;20003;-75
2023/05/16 09:28:23;;;;;;;3.28;1.20;;;;;;;;;;7368475;19;20484;-75
2023/05/16 09:30:51;;;;;;;3.45;1.30;;;;;;;;;;7369548;19;20469;-75
2023/05/16 09:33:16;;;;;;;3.35;1.40;;;;;;;;;;7370905;19;20042;-75
2023/05/16 09:35:42;;;;;;;3.10;1.40;;;;;;;;;;7370257;19;20007;-73
2023/05/16 09:38:16;;;;;;;4.68;1.52;;;;;;;;;;7389654;19;20061;-74
2023/05/16 09:40:41;;;;;;;4.25;1.50;;;;;;;;;;7371047;19;20003;-73
2023/05/16 09:43:07;;;;;;;7.03;1.48;;;;;;;;;;7369346;19;20006;-73
2023/05/16 09:45:35;;;;;;;3.72;1.40;;;;;;;;;;7369205;19;20038;-74
2023/05/16 09:48:08;;;;;;;5.63;1.60;;;;;;;;;;7368354;19;20011;-74
2023/05/16 09:50:35;;;;;;;6.68;1.58;;;;;;;;;;7392726;19;20019;-74
2023/05/16 09:53:02;;;;;;;5.63;1.83;;;;;;;;;;7369744;19;20015;-74
2023/05/16 09:55:27;;;;;;;4.80;1.48;;;;;;;;;;7368296;19;20016;-74
2023/05/16 09:57:53;;;;;;;8.35;1.90;;;;;;;;;;7367614;19;20010;-74
2023/05/16 10:00:18;;;;;;;6.47;1.90;;;;;;;;;;7369890;19;20376;-74
2023/05/16 10:02:44;;;;;;;7.60;1.58;;;;;;;;;;7369138;19;20040;-74
2023/05/16 10:05:09;;;;;;;7.50;2.10;;;;;;;;;;7388818;19;20038;-74
2023/05/16 10:07:37;;;;;;;6.32;1.90;;;;;;;;;;7366814;19;20013;-74
2023/05/16 10:10:06;;;;;;;10.02;2.22;;;;;;;;;;7372118;19;20006;-75
2023/05/16 10:12:32;;;;;;;6.95;1.85;;;;;;;;;;7371944;19;20488;-74
2023/05/16 10:15:00;;;;;;;7.88;1.83;;;;;;;;;;7370301;19;20007;-75
2023/05/16 10:17:28;;;;;;;8.10;1.90;;;;;;;;;;7392157;19;20003;-74
2023/05/16 10:19:54;;;;;;;5.15;1.70;;;;;;;;;;7368984;19;20010;-74
2023/05/16 10:22:22;;;;;;;5.10;1.63;;;;;;;;;;7369315;19;20010;-74
2023/05/16 10:24:51;;;;;;;11.45;1.92;;;;;;;;;;7377190;19;20041;-74
2023/05/16 10:27:16;;;;;;;3.47;1.42;;;;;;;;;;7375441;19;20002;-74
2023/05/16 10:29:43;;;;;;;10.60;2.00;;;;;;;;;;7378484;19;20547;-74
2023/05/16 10:32:09;;;;;;;8.77;2.17;;;;;;;;;;7402597;19;19999;-75
2023/05/16 10:34:35;;;;;;;7.05;2.08;;;;;;;;;;7384927;19;20016;-74
2023/05/16 10:37:01;;;;;;;4.97;1.92;;;;;;;;;;7380056;19;20005;-74
2023/05/16 10:39:28;;;;;;;5.97;1.98;;;;;;;;;;7377437;19;20006;-75
2023/05/16 10:41:54;;;;;;;10.88;2.08;;;;;;;;;;7377212;19;20097;-74
2023/05/16 10:44:19;;;;;;;5.25;1.38;;;;;;;;;;7397028;19;19999;-74
2023/05/16 10:46:46;;;;;;;5.78;1.75;;;;;;;;;;7374309;19;20010;-74
2023/05/16 10:49:22;;;;;;;5.60;1.42;;;;;;;;;;7374881;19;20093;-74
2023/05/16 10:52:09;;;;;;;6.35;1.40;;;;;;;;;;7377631;19;20011;-74
2023/05/16 10:54:50;;;;;;;11.02;2.10;;;;;;;;;;7384455;19;20014;-67
2023/05/16 10:57:21;;;;;;;5.60;2.13;;;;;;;;;;7389381;19;20059;-68
2023/05/16 10:59:48;;;;;;;7.70;1.80;;;;;;;;;;7390266;19;20037;-67
2023/05/16 11:02:24;;;;;;;3.90;1.70;;;;;;;;;;7414166;19;20019;-68
2023/05/16 11:04:51;;;;;;;8.80;1.65;;;;;;;;;;7386456;19;20018;-68
2023/05/16 11:07:18;;;;;;;3.78;1.70;;;;;;;;;;7377742;19;20011;-67
2023/05/16 11:09:45;;;;;;;9.07;2.05;;;;;;;;;;7375920;19;20010;-66
2023/05/16 11:12:12;;;;;;;7.82;2.17;;;;;;;;;;7374622;19;20026;-66
2023/05/16 11:14:42;;;;;;;10.82;1.77;;;;;;;;;;7374867;19;20493;-66
2023/05/16 11:17:20;;;;;;;6.75;1.80;;;;;;;;;;7393287;19;20007;-66
2023/05/16 11:20:04;;;;;;;8.60;1.85;;;;;;;;;;7373547;19;20002;-66
2023/05/16 11:22:32;;;;;;;8.93;1.92;;;;;;;;;;7374082;19;20011;-67
2023/05/16 11:25:04;;;;;;;8.80;2.10;;;;;;;;;;7374504;19;20018;-67
2023/05/16 11:27:35;;;;;;;9.68;2.10;;;;;;;;;;7372831;19;20010;-67
2023/05/16 11:30:18;;;;;;;11.50;2.25;;;;;;;;;;7374546;19;20006;-67
2023/05/16 11:32:45;;;;;;;8.35;1.67;;;;;;;;;;7373481;19;20058;-67
2023/05/16 11:35:14;;;;;;;6.47;2.08;;;;;;;;;;7396042;19;20011;-67
2023/05/16 11:37:39;;;;;;;7.85;1.63;;;;;;;;;;7370644;19;20067;-68
2023/05/16 11:40:07;;;;;;;7.30;1.70;;;;;;;;;;7374409;19;20010;-67
2023/05/16 11:42:40;;;;;;;10.35;1.65;;;;;;;;;;7371728;19;20010;-68
2023/05/16 11:45:17;;;;;;;8.88;2.03;;;;;;;;;;7373759;19;20015;-67
2023/05/16 11:47:46;;;;;;;5.82;1.60;;;;;;;;;;7371353;19;20006;-67
2023/05/16 11:50:14;;;;;;;7.30;1.90;;;;;;;;;;7395535;19;20005;-67
2023/05/16 11:52:42;;;;;;;13.68;1.75;;;;;;;;;;7372928;19;20028;-68
2023/05/16 11:55:10;;;;;;;3.45;1.60;;;;;;;;;;7372922;19;20015;-67
2023/05/16 11:57:37;;;;;;;5.45;1.50;;;;;;;;;;7369608;19;20018;-68
2023/05/16 12:00:25;;;;;;;8.02;1.52;;;;;;;;;;7372659;19;20014;-68
2023/05/16 12:02:51;;;;;;;7.30;1.70;;;;;;;;;;7372958;19;20017;-68
2023/05/16 12:05:19;;;;;;;9.25;1.30;;;;;;;;;;7393633;19;20118;-67
2023/05/16 12:07:45;;;;;;;5.45;1.73;;;;;;;;;;7369155;19;20500;-68
2023/05/16 12:10:13;;;;;;;3.00;1.30;;;;;;;;;;7376034;19;20082;-68
2023/05/16 12:12:40;;;;;;;9.13;2.05;;;;;;;;;;7377745;19;20013;-68
2023/05/16 12:15:07;;;;;;;3.88;1.77;;;;;;;;;;7367727;19;20102;-67
2023/05/16 12:17:34;;;;;;;18.20;2.42;;;;;;;;;;7370211;19;20014;-67
2023/05/16 12:20:00;;;;;;;12.55;2.20;;;;;;;;;;7372265;19;20009;-67
2023/05/16 12:22:25;;;;;;;9.75;1.88;;;;;;;;;;7371353;19;20010;-67
2023/05/16 12:24:51;;;;;;;8.25;1.70;;;;;;;;;;7394307;19;20031;-68
2023/05/16 12:27:24;;;;;;;14.27;1.45;;;;;;;;;;7369521;19;20011;-68
2023/05/16 12:29:49;;;;;;;12.15;2.05;;;;;;;;;;7371816;19;20414;-68
2023/05/16 12:32:18;;;;;;;11.13;1.63;;;;;;;;;;7370576;19;20010;-68
2023/05/16 12:34:51;;;;;;;11.90;2.13;;;;;;;;;;7371327;19;20376;-68
2023/05/16 12:37:17;;;;;;;8.02;1.73;;;;;;;;;;7368914;19;20347;-68
2023/05/16 12:39:46;;;;;;;6.53;1.90;;;;;;;;;;7392644;19;20010;-68
2023/05/16 12:42:14;;;;;;;5.82;1.40;;;;;;;;;;7371260;19;20006;-68
2023/05/16 12:44:44;;;;;;;4.32;1.35;;;;;;;;;;7368898;19;20102;-68
2023/05/16 12:47:12;;;;;;;9.37;1.40;;;;;;;;;;7367085;19;20067;-71
2023/05/16 12:49:47;;;;;;;5.38;1.35;;;;;;;;;;7370386;19;20013;-69
2023/05/16 12:52:20;;;;;;;6.45;1.83;;;;;;;;;;7371088;19;19999;-73
2023/05/16 12:54:46;;;;;;;6.82;1.60;;;;;;;;;;7391813;19;20480;-73
2023/05/16 12:57:12;;;;;;;6.80;1.80;;;;;;;;;;7368574;19;20019;-72
2023/05/16 12:59:37;;;;;;;3.88;1.35;;;;;;;;;;7370617;19;20006;-74
2023/05/16 13:02:03;;;;;;;5.15;1.30;;;;;;;;;;7370750;19;20009;-74
2023/05/16 13:04:29;;;;;;;4.60;1.58;;;;;;;;;;7371826;19;20049;-72
2023/05/16 13:06:54;;;;;;;10.30;1.50;;;;;;;;;;7390721;19;20010;-73
2023/05/16 13:09:20;;;;;;;6.82;1.40;;;;;;;;;;7369897;19;20031;-73
2023/05/16 13:11:45;;;;;;;3.35;1.20;;;;;;;;;;7371000;19;20010;-73
2023/05/16 13:14:11;;;;;;;6.82;1.67;;;;;;;;;;7372359;19;20007;-73
2023/05/16 13:16:37;;;;;;;21.10;1.70;;;;;;;;;;7372876;19;20010;-73
2023/05/16 13:19:04;;;;;;;5.65;1.42;;;;;;;;;;7393563;19;20035;-73
2023/05/16 13:21:30;;;;;;;7.20;1.73;;;;;;;;;;7371261;19;20014;-74
2023/05/16 13:23:56;;;;;;;6.53;1.50;;;;;;;;;;7370718;19;20420;-74
2023/05/16 13:26:21;;;;;;;6.07;1.80;;;;;;;;;;7370483;19;20032;-74
2023/05/16 13:28:50;;;;;;;4.22;1.45;;;;;;;;;;7368117;19;20023;-74
2023/05/16 13:31:15;;;;;;;7.65;1.55;;;;;;;;;;7370036;19;20002;-74
2023/05/16 13:33:41;;;;;;;8.82;1.48;;;;;;;;;;7392334;19;20059;-74
2023/05/16 13:36:06;;;;;;;8.73;1.27;;;;;;;;;;7369861;19;20014;-74
2023/05/16 13:38:32;;;;;;;7.75;1.52;;;;;;;;;;7368145;19;20066;-74
2023/05/16 13:40:57;;;;;;;7.88;1.30;;;;;;;;;;7371104;19;20074;-74
2023/05/16 13:43:22;;;;;;;7.85;2.00;;;;;;;;;;7370882;19;20011;-74
2023/05/16 13:45:47;;;;;;;8.73;1.85;;;;;;;;;;7391438;19;20002;-74
2023/05/16 13:48:13;;;;;;;3.08;1.38;;;;;;;;;;7377474;19;20048;-74
2023/05/16 13:50:38;;;;;;;4.30;1.40;;;;;;;;;;7382735;19;20014;-74
2023/05/16 13:53:04;;;;;;;8.30;1.75;;;;;;;;;;7371864;19;20044;-74
2023/05/16 13:55:30;;;;;;;4.50;1.23;;;;;;;;;;7371337;19;20010;-74
2023/05/16 13:57:55;;;;;;;5.80;1.80;;;;;;;;;;7394865;19;19999;-74
2023/05/16 14:00:20;;;;;;;4.65;1.33;;;;;;;;;;7383947;19;20024;-75
2023/05/16 14:02:46;;;;;;;7.22;1.50;;;;;;;;;;7385395;19;20010;-74
2023/05/16 14:05:11;;;;;;;6.85;1.60;;;;;;;;;;7382087;19;20030;-74
2023/05/16 14:07:37;;;;;;;5.45;1.58;;;;;;;;;;7374755;19;20010;-74
2023/05/16 14:10:03;;;;;;;6.60;1.40;;;;;;;;;;7399901;19;20010;-74
2023/05/16 14:12:29;;;;;;;3.58;1.40;;;;;;;;;;7377598;19;20010;-74
2023/05/16 14:14:55;;;;;;;7.75;1.50;;;;;;;;;;7376839;19;20027;-74
2023/05/16 14:17:21;;;;;;;6.10;1.40;;;;;;;;;;7375461;19;20010;-74
2023/05/16 14:19:46;;;;;;;4.90;1.35;;;;;;;;;;7380471;19;20020;-74
2023/05/16 14:22:12;;;;;;;5.65;2.35;;;;;;;;;;7378049;19;19998;-74
2023/05/16 14:24:37;;;;;;;4.25;1.45;;;;;;;;;;7399302;19;20026;-73
2023/05/16 14:27:02;;;;;;;9.98;1.67;;;;;;;;;;7375133;19;20025;-74
2023/05/16 14:29:28;;;;;;;6.50;1.55;;;;;;;;;;7375677;19;20059;-74
2023/05/16 14:31:53;;;;;;;2.00;1.20;;;;;;;;;;7377153;19;20472;-73
2023/05/16 14:34:19;;;;;;;4.97;1.27;;;;;;;;;;7377661;19;20017;-73